Coffs Harbour Airport Daily Summaries

August 2020
icon icon icon icon
Date Min to 9am Anomaly Max from 9am Anomaly Rain to 9am  
°C °C °C °C mm
Sat 01/08/2020 12.1 - 19.5 - 0.0  
Sun 02/08/2020 6.8 - 19.2 - 0.0  
Mon 03/08/2020 7.9 - 22.7 - 0.0  
Tue 04/08/2020 6.7 - 23.2 - 0.0  
Wed 05/08/2020 6.9 - 20.2 - 0.0  
Thu 06/08/2020 2.9 - 17.9 - 0.0  
Fri 07/08/2020 5.2 - 17.6 - 0.0  
Sat 08/08/2020 11.9 - 20.4 - 14.8  
Sun 09/08/2020 4.7 - 18.1 - 0.2  
Mon 10/08/2020 4.8 - 17.9 - 2.0  
Tue 11/08/2020 12.4 - 19.9 - 3.6  
Wed 12/08/2020 11.3 - 21.5 - 0.0  
Thu 13/08/2020 9.2 - 23.7 - 0.0  
Fri 14/08/2020 8.3 - 24.1 - 0.0  
Sat 15/08/2020 16.4 - 26.0 - 13.0  
Sun 16/08/2020 6.9 - 21.2 - 0.0  
Mon 17/08/2020 4.2 - 20.5 - 0.0  
Tue 18/08/2020 6.5 - 21.6 - 0.0  
Wed 19/08/2020 12.1 - 25.7 - 0.0  
Thu 20/08/2020 8.9 - 23.0 - 0.0  
Fri 21/08/2020 4.6 - 19.9 - 0.0  
Sat 22/08/2020 6.3 - 21.0 - 0.0  
Sun 23/08/2020 4.6 - 20.0 - 0.0  
Mon 24/08/2020 2.3 - 19.5 - 0.0  
Tue 25/08/2020 2.7 - 18.1 - 0.0  
Wed 26/08/2020 8.6 - 18.8 - 0.0  
Thu 27/08/2020 4.4 - 20.7 - 0.0  
Fri 28/08/2020 4.8 - 22.3 - 0.0  
Sat 29/08/2020 6.0 - 21.1 - 0.0  
Sun 30/08/2020 7.4 - 22.4 - 0.0  
Mon 31/08/2020 8.4 - 25.4 - 0.0  
 
August 2020 Average 7.3   21.1      
 
August 2020 Total         33.6 5 day(s)
 
Jan-Aug 2020 Total         1452.9 112 day(s)
 
Highlights the coolest minimum or maximum temperature during the period.
 
Highlights the warmest minimum or maximum temperature during the period.
 
Highlights the highest daily rainfall during the period.
10  
A yellow cell indicates a probable monthly record for this site (sites with ≥ 10 years of records only). The number of years of records available for the relevant field for this month is indicated in black. See the station's climate page for full details.

Station Details

COFFS HARBOUR AIRPORT
Mid North Coast, New South Wales ACT
30.3189°S 153.1162°E 4m AMSL
Commenced 2013
Display Your Local Weather

Weather News

NSW coast to be lashed by rain over next seven days due to low-pressure system

19:04 EDT

The east coast of NSW will continue to be lashed by consistent rain for the next seven days, with the Bureau of Meteorology (BOM) warning there could be flash flooding in parts.

Wild storms lash south-east Queensland, leaving thousands without power

19:00 EDT

A person has been struck by a tree during wild storms which have brought destructive winds, lightning and heavy rain to south-east Queensland.